Himawari 2 — JG5636 — position and weather

sailwx.info

Track history (hours):
 
Tides and Currents Weather Stations Pressure Air Temp Water Temp Dewpoint Dewpoint Depression Visibility Wind Speed Wind Dir Waves Ship Positions

Himawari 2

Last reported at 2016-Jun-27 09:06 UTC. Time now 2016-Jun-27 11:29 UTC.
Position N 33°52' E 134°59'.

Length 161 m; draft 6.5 m.

Type: Cargo ship. MMSI: 431100957.

Date/timePositionNaut miles runAvg speedWind from/ knotsBaromVisibWave heightAir tempDewpointWater temp
2016-Jun-27 09:06N 33°52' E 134°59'1323.2
2016-Jun-27 08:33N 34°04' E 134°59'2222.5
2016-Jun-27 07:34N 34°26' E 135°06'2020.0
2016-Jun-27 06:33N 34°39' E 135°24'1 0.4
2016-Jun-27 04:32N 34°40' E 135°24'0 0.0
2016-Jun-27 03:32N 34°40' E 135°24'0 0.0
2016-Jun-27 02:20N 34°40' E 135°24'0 0.0
2016-Jun-27 01:32N 34°40' E 135°24'0 0.0
2016-Jun-27 00:14N 34°40' E 135°24'0 0.0
2016-Jun-26 23:32N 34°40' E 135°24'0 0.0
2016-Jun-26 22:20N 34°40' E 135°24'0 0.0
2016-Jun-26 21:32N 34°40' E 135°24'0 0.0
2016-Jun-26 20:20N 34°40' E 135°24'0 0.0
2016-Jun-26 19:32N 34°40' E 135°24'0 0.0
2016-Jun-26 18:26N 34°40' E 135°24'0 0.0
2016-Jun-26 17:20N 34°40' E 135°24'0 0.0
2016-Jun-26 16:32N 34°40' E 135°24'0 0.0
2016-Jun-26 15:32N 34°40' E 135°24'0 0.0
2016-Jun-26 14:32N 34°40' E 135°24'0 0.0
2016-Jun-26 13:32N 34°40' E 135°24'0 0.0
2016-Jun-26 12:26N 34°40' E 135°24'0 0.0
2016-Jun-26 11:32N 34°40' E 135°24'0 0.0
2016-Jun-26 10:32N 34°40' E 135°24'0 0.0
2016-Jun-26 09:32N 34°40' E 135°24'0 0.0
2016-Jun-26 08:32N 34°40' E 135°24'0 0.0
2016-Jun-26 07:32N 34°40' E 135°24'0 0.0
2016-Jun-26 06:32N 34°40' E 135°24'0 0.0
2016-Jun-26 05:32N 34°40' E 135°24'0 0.0
2016-Jun-26 04:32N 34°40' E 135°24'0 0.0
2016-Jun-26 03:32N 34°40' E 135°24'0 0.0
2016-Jun-26 02:20N 34°40' E 135°24'1 1.6
2016-Jun-26 01:33N 34°38' E 135°24'1818.0
2016-Jun-26 00:33N 34°26' E 135°08'1919.4
2016-Jun-25 23:33N 34°08' E 134°59'17515.8
2016-Jun-25 12:30N 34°26' E 138°29'3918.3
2016-Jun-25 10:24N 34°42' E 139°12'1618.8
2016-Jun-25 09:33N 34°53' E 139°26'1918.9
2016-Jun-25 08:33N 35°06' E 139°42'1312.6
2016-Jun-25 07:33N 35°19' E 139°43'1414.2
2016-Jun-25 06:33N 35°31' E 139°51'6 5.7
2016-Jun-25 05:33N 35°36' E 139°48'0 0.0
2016-Jun-25 04:31N 35°36' E 139°48'0 0.0
2016-Jun-25 03:33N 35°36' E 139°48'0 0.0
2016-Jun-25 02:33N 35°36' E 139°48'8 7.6
2016-Jun-25 01:34N 35°30' E 139°52'1313.4
2016-Jun-25 00:33N 35°17' E 139°45'1616.3
2016-Jun-24 23:34N 35°01' E 139°45'1614.9
2016-Jun-24 22:29N 34°56' E 140°03'2520.7
2016-Jun-24 21:17N 35°09' E 140°29'1620.9
2016-Jun-24 20:32N 35°21' E 140°41'  
2016-Jun-21 23:27N 36°43' E 141°03'4118.6
2016-Jun-21 21:15N 36°03' E 141°01'1418.1
2016-Jun-21 20:30N 35°49' E 141°03'3417.7
2016-Jun-21 18:33N 35°21' E 140°40'2019.3
2016-Jun-21 17:32N 35°05' E 140°24'1919.1
2016-Jun-21 16:33N 34°56' E 140°05'1716.7
2016-Jun-21 15:33N 34°55' E 139°44'1817.8
2016-Jun-21 14:33N 35°13' E 139°46'1313.2
2016-Jun-21 13:33N 35°26' E 139°45'1010.4
2016-Jun-21 12:33N 35°36' E 139°48'0 0.0
2016-Jun-21 11:33N 35°36' E 139°48'0 0.0
2016-Jun-21 10:33N 35°36' E 139°48'0 0.0
2016-Jun-21 09:33N 35°36' E 139°48'0 0.0
2016-Jun-21 08:33N 35°36' E 139°48'0 0.0
2016-Jun-21 07:33N 35°36' E 139°48'0 0.0
2016-Jun-21 05:33N 35°36' E 139°48'0 0.0
2016-Jun-21 04:33N 35°36' E 139°48'0 0.0
2016-Jun-21 03:33N 35°36' E 139°48'0 0.0
2016-Jun-21 02:33N 35°36' E 139°48'0 0.0
2016-Jun-21 01:33N 35°36' E 139°48'0 0.0
2016-Jun-21 00:33N 35°36' E 139°48'1 1.2
2016-Jun-20 23:33N 35°35' E 139°48'1312.9
2016-Jun-20 22:33N 35°22' E 139°45'1212.0
2016-Jun-20 21:33N 35°10' E 139°47'1715.5
2016-Jun-20 20:29N 34°57' E 139°34'7120.8
2016-Jun-20 17:05N 34°19' E 138°22'1323.7
2016-Jun-20 16:33N 34°14' E 138°08'15719.7
2016-Jun-20 08:33N 34°01' E 134°59'2121.0
2016-Jun-20 07:33N 34°22' E 135°00'2020.3
2016-Jun-20 06:33N 34°36' E 135°18'6 6.0
2016-Jun-20 05:31N 34°40' E 135°24'0 0.0
2016-Jun-20 04:25N 34°40' E 135°24'0 0.0
2016-Jun-20 03:31N 34°40' E 135°24'0 0.0
2016-Jun-20 02:31N 34°40' E 135°24'0 0.0
2016-Jun-20 01:31N 34°40' E 135°24'0 0.0
2016-Jun-20 00:31N 34°40' E 135°24'0 0.0
2016-Jun-19 23:31N 34°40' E 135°24'0 0.0
2016-Jun-19 22:31N 34°40' E 135°24'0 0.0
2016-Jun-19 21:31N 34°40' E 135°24'0 0.0
2016-Jun-19 20:13N 34°40' E 135°24'0 0.0
2016-Jun-19 19:31N 34°40' E 135°24'0 0.0
2016-Jun-19 18:31N 34°40' E 135°24'0 0.0
2016-Jun-19 17:31N 34°40' E 135°24'0 0.0
2016-Jun-19 16:31N 34°40' E 135°24'0 0.0
2016-Jun-19 15:31N 34°40' E 135°24'0 0.0
2016-Jun-19 14:25N 34°40' E 135°24'0 0.0
2016-Jun-19 13:31N 34°40' E 135°24'0 0.0
2016-Jun-19 12:31N 34°40' E 135°24'0 0.0
2016-Jun-19 11:31N 34°40' E 135°24'0 0.0
2016-Jun-19 10:31N 34°40' E 135°24'0 0.0
2016-Jun-19 09:19N 34°40' E 135°24'0 0.0
2016-Jun-19 08:31N 34°40' E 135°24'0 0.0
2016-Jun-19 07:25N 34°40' E 135°24'0 0.0
2016-Jun-19 06:25N 34°40' E 135°24'0 0.0
2016-Jun-19 05:25N 34°40' E 135°24'0 0.0
2016-Jun-19 04:31N 34°40' E 135°24'0 0.0
2016-Jun-19 03:31N 34°40' E 135°24'0 0.0
2016-Jun-19 02:31N 34°40' E 135°24'0 0.0
2016-Jun-19 01:31N 34°40' E 135°24'0 0.0
2016-Jun-19 00:31N 34°40' E 135°24'0 0.0
2016-Jun-18 23:31N 34°40' E 135°24'0 0.0
2016-Jun-18 22:31N 34°40' E 135°24'0 0.0
2016-Jun-18 21:25N 34°40' E 135°24'0 0.0
2016-Jun-18 20:31N 34°40' E 135°24'0 0.0
2016-Jun-18 19:13N 34°40' E 135°24'0 0.0
2016-Jun-18 18:31N 34°40' E 135°24'0 0.0
2016-Jun-18 17:31N 34°40' E 135°24'0 0.0
2016-Jun-18 15:07N 34°40' E 135°24'0 0.0
2016-Jun-18 14:31N 34°40' E 135°24'0 0.0
2016-Jun-18 13:25N 34°40' E 135°24'0 0.0
2016-Jun-18 12:31N 34°40' E 135°24'0 0.0
2016-Jun-18 11:31N 34°40' E 135°24'0 0.0
2016-Jun-18 10:31N 34°40' E 135°24'0 0.0
2016-Jun-18 09:31N 34°40' E 135°24'0 0.0
2016-Jun-18 07:25N 34°40' E 135°24'0 0.0
2016-Jun-18 06:31N 34°40' E 135°24'0 0.1
2016-Jun-18 05:34N 34°40' E 135°24'1111.0
2016-Jun-18 04:33N 34°32' E 135°15'2020.0
2016-Jun-18 03:33N 34°16' E 134°59'1918.9
2016-Jun-18 02:34N 33°58' E 135°01'2 1.7
2016-Jun-18 01:33N 33°58' E 134°59'  
Track history (hours):
 
Tides and Currents Weather Stations Pressure Air Temp Water Temp Dewpoint Dewpoint Depression Visibility Wind Speed Wind Dir Waves Ship Positions

Himawari 2

Last reported at 2016-Jun-27 09:06 UTC. Time now 2016-Jun-27 11:29 UTC.
Position N 33°52' E 134°59'.

Length 161 m; draft 6.5 m.

Type: Cargo ship. MMSI: 431100957.

Date/timePositionNaut miles runAvg speedWind from/ knotsBaromVisibWave heightAir tempDewpointWater temp
2016-Jun-27 09:06N 33°52' E 134°59'1323.2
2016-Jun-27 08:33N 34°04' E 134°59'2222.5
2016-Jun-27 07:34N 34°26' E 135°06'2020.0
2016-Jun-27 06:33N 34°39' E 135°24'1 0.4
2016-Jun-27 04:32N 34°40' E 135°24'0 0.0
2016-Jun-27 03:32N 34°40' E 135°24'0 0.0
2016-Jun-27 02:20N 34°40' E 135°24'0 0.0
2016-Jun-27 01:32N 34°40' E 135°24'0 0.0
2016-Jun-27 00:14N 34°40' E 135°24'0 0.0
2016-Jun-26 23:32N 34°40' E 135°24'0 0.0
2016-Jun-26 22:20N 34°40' E 135°24'0 0.0
2016-Jun-26 21:32N 34°40' E 135°24'0 0.0
2016-Jun-26 20:20N 34°40' E 135°24'0 0.0
2016-Jun-26 19:32N 34°40' E 135°24'0 0.0
2016-Jun-26 18:26N 34°40' E 135°24'0 0.0
2016-Jun-26 17:20N 34°40' E 135°24'0 0.0
2016-Jun-26 16:32N 34°40' E 135°24'0 0.0
2016-Jun-26 15:32N 34°40' E 135°24'0 0.0
2016-Jun-26 14:32N 34°40' E 135°24'0 0.0
2016-Jun-26 13:32N 34°40' E 135°24'0 0.0
2016-Jun-26 12:26N 34°40' E 135°24'0 0.0
2016-Jun-26 11:32N 34°40' E 135°24'0 0.0
2016-Jun-26 10:32N 34°40' E 135°24'0 0.0
2016-Jun-26 09:32N 34°40' E 135°24'0 0.0
2016-Jun-26 08:32N 34°40' E 135°24'0 0.0
2016-Jun-26 07:32N 34°40' E 135°24'0 0.0
2016-Jun-26 06:32N 34°40' E 135°24'0 0.0
2016-Jun-26 05:32N 34°40' E 135°24'0 0.0
2016-Jun-26 04:32N 34°40' E 135°24'0 0.0
2016-Jun-26 03:32N 34°40' E 135°24'0 0.0
2016-Jun-26 02:20N 34°40' E 135°24'1 1.6
2016-Jun-26 01:33N 34°38' E 135°24'1818.0
2016-Jun-26 00:33N 34°26' E 135°08'1919.4
2016-Jun-25 23:33N 34°08' E 134°59'17515.8
2016-Jun-25 12:30N 34°26' E 138°29'3918.3
2016-Jun-25 10:24N 34°42' E 139°12'1618.8
2016-Jun-25 09:33N 34°53' E 139°26'1918.9
2016-Jun-25 08:33N 35°06' E 139°42'1312.6
2016-Jun-25 07:33N 35°19' E 139°43'1414.2
2016-Jun-25 06:33N 35°31' E 139°51'6 5.7
2016-Jun-25 05:33N 35°36' E 139°48'0 0.0
2016-Jun-25 04:31N 35°36' E 139°48'0 0.0
2016-Jun-25 03:33N 35°36' E 139°48'0 0.0
2016-Jun-25 02:33N 35°36' E 139°48'8 7.6
2016-Jun-25 01:34N 35°30' E 139°52'1313.4
2016-Jun-25 00:33N 35°17' E 139°45'1616.3
2016-Jun-24 23:34N 35°01' E 139°45'1614.9
2016-Jun-24 22:29N 34°56' E 140°03'2520.7
2016-Jun-24 21:17N 35°09' E 140°29'1620.9
2016-Jun-24 20:32N 35°21' E 140°41'  
2016-Jun-21 23:27N 36°43' E 141°03'4118.6
2016-Jun-21 21:15N 36°03' E 141°01'1418.1
2016-Jun-21 20:30N 35°49' E 141°03'3417.7
2016-Jun-21 18:33N 35°21' E 140°40'2019.3
2016-Jun-21 17:32N 35°05' E 140°24'1919.1
2016-Jun-21 16:33N 34°56' E 140°05'1716.7
2016-Jun-21 15:33N 34°55' E 139°44'1817.8
2016-Jun-21 14:33N 35°13' E 139°46'1313.2
2016-Jun-21 13:33N 35°26' E 139°45'1010.4
2016-Jun-21 12:33N 35°36' E 139°48'0 0.0
2016-Jun-21 11:33N 35°36' E 139°48'0 0.0
2016-Jun-21 10:33N 35°36' E 139°48'0 0.0
2016-Jun-21 09:33N 35°36' E 139°48'0 0.0
2016-Jun-21 08:33N 35°36' E 139°48'0 0.0
2016-Jun-21 07:33N 35°36' E 139°48'0 0.0
2016-Jun-21 05:33N 35°36' E 139°48'0 0.0
2016-Jun-21 04:33N 35°36' E 139°48'0 0.0
2016-Jun-21 03:33N 35°36' E 139°48'0 0.0
2016-Jun-21 02:33N 35°36' E 139°48'0 0.0
2016-Jun-21 01:33N 35°36' E 139°48'0 0.0
2016-Jun-21 00:33N 35°36' E 139°48'1 1.2
2016-Jun-20 23:33N 35°35' E 139°48'1312.9
2016-Jun-20 22:33N 35°22' E 139°45'1212.0
2016-Jun-20 21:33N 35°10' E 139°47'1715.5
2016-Jun-20 20:29N 34°57' E 139°34'7120.8
2016-Jun-20 17:05N 34°19' E 138°22'1323.7
2016-Jun-20 16:33N 34°14' E 138°08'15719.7
2016-Jun-20 08:33N 34°01' E 134°59'2121.0
2016-Jun-20 07:33N 34°22' E 135°00'2020.3
2016-Jun-20 06:33N 34°36' E 135°18'6 6.0
2016-Jun-20 05:31N 34°40' E 135°24'0 0.0
2016-Jun-20 04:25N 34°40' E 135°24'0 0.0
2016-Jun-20 03:31N 34°40' E 135°24'0 0.0
2016-Jun-20 02:31N 34°40' E 135°24'0 0.0
2016-Jun-20 01:31N 34°40' E 135°24'0 0.0
2016-Jun-20 00:31N 34°40' E 135°24'0 0.0
2016-Jun-19 23:31N 34°40' E 135°24'0 0.0
2016-Jun-19 22:31N 34°40' E 135°24'0 0.0
2016-Jun-19 21:31N 34°40' E 135°24'0 0.0
2016-Jun-19 20:13N 34°40' E 135°24'0 0.0
2016-Jun-19 19:31N 34°40' E 135°24'0 0.0
2016-Jun-19 18:31N 34°40' E 135°24'0 0.0
2016-Jun-19 17:31N 34°40' E 135°24'0 0.0
2016-Jun-19 16:31N 34°40' E 135°24'0 0.0
2016-Jun-19 15:31N 34°40' E 135°24'0 0.0
2016-Jun-19 14:25N 34°40' E 135°24'0 0.0
2016-Jun-19 13:31N 34°40' E 135°24'0 0.0
2016-Jun-19 12:31N 34°40' E 135°24'0 0.0
2016-Jun-19 11:31N 34°40' E 135°24'0 0.0
2016-Jun-19 10:31N 34°40' E 135°24'0 0.0
2016-Jun-19 09:19N 34°40' E 135°24'0 0.0
2016-Jun-19 08:31N 34°40' E 135°24'0 0.0
2016-Jun-19 07:25N 34°40' E 135°24'0 0.0
2016-Jun-19 06:25N 34°40' E 135°24'0 0.0
2016-Jun-19 05:25N 34°40' E 135°24'0 0.0
2016-Jun-19 04:31N 34°40' E 135°24'0 0.0
2016-Jun-19 03:31N 34°40' E 135°24'0 0.0
2016-Jun-19 02:31N 34°40' E 135°24'0 0.0
2016-Jun-19 01:31N 34°40' E 135°24'0 0.0
2016-Jun-19 00:31N 34°40' E 135°24'0 0.0
2016-Jun-18 23:31N 34°40' E 135°24'0 0.0
2016-Jun-18 22:31N 34°40' E 135°24'0 0.0
2016-Jun-18 21:25N 34°40' E 135°24'0 0.0
2016-Jun-18 20:31N 34°40' E 135°24'0 0.0
2016-Jun-18 19:13N 34°40' E 135°24'0 0.0
2016-Jun-18 18:31N 34°40' E 135°24'0 0.0
2016-Jun-18 17:31N 34°40' E 135°24'0 0.0
2016-Jun-18 15:07N 34°40' E 135°24'0 0.0
2016-Jun-18 14:31N 34°40' E 135°24'0 0.0
2016-Jun-18 13:25N 34°40' E 135°24'0 0.0
2016-Jun-18 12:31N 34°40' E 135°24'0 0.0
2016-Jun-18 11:31N 34°40' E 135°24'0 0.0
2016-Jun-18 10:31N 34°40' E 135°24'0 0.0
2016-Jun-18 09:31N 34°40' E 135°24'0 0.0
2016-Jun-18 07:25N 34°40' E 135°24'0 0.0
2016-Jun-18 06:31N 34°40' E 135°24'0 0.1
2016-Jun-18 05:34N 34°40' E 135°24'1111.0
2016-Jun-18 04:33N 34°32' E 135°15'2020.0
2016-Jun-18 03:33N 34°16' E 134°59'1918.9
2016-Jun-18 02:34N 33°58' E 135°01'2 1.7
2016-Jun-18 01:33N 33°58' E 134°59'  

Dump ship's entire track history